Flight Track Log - Related Links

Times and Time Zones

All times are in EDT time to prevent confusion due to time zone crossing. See the KAP927 flight status page for this flight to view local times or setup timezone preferences in your user account.

Time Position Orientation Groundspeed Altitude Reporting Facility
EDT Latitude Longitude Course Direction KTS MPH feet Rate Location/Type
Wed 01:29:37 PM 42.3667 -71.0167 270° West 99 114 500  Level KA90
Wed 01:30:25 PM 42.3500 -71.0500 236° Southwest 96 110 1,000 550 Climbing KA90
Wed 01:31:26 PM 42.3500 -71.0833 270° West 102 117 1,500 496 Climbing KA90
Wed 01:32:26 PM 42.3333 -71.1167 236° Southwest 107 123 2,000 474 Climbing KA90
Wed 01:33:20 PM 42.3333 -71.1667 270° West 104 120 2,400 526 Climbing KA90
Wed 01:34:20 PM 42.3333 -71.2000 270° West 103 119 3,000 550 Climbing KA90
Wed 01:35:00 PM 42.3167 -71.2958 270° West  Level FlightAware Approximate
Wed 01:35:20 PM 42.3333 -71.2333 270° West 98 113 3,500  Level KA90
Wed 01:36:20 PM 42.3333 -71.2667 270° West 94 108 3,900 429 Climbing KA90
Wed 01:37:26 PM 42.3167 -71.3000 236° Southwest 95 109 4,400 571 Climbing KA90
Wed 01:38:26 PM 42.3167 -71.3500 270° West 97 112 5,100 579 Climbing KA90
Wed 01:39:20 PM 42.3167 -71.3667 270° West 96 110 5,500 474 Climbing KA90
Wed 01:40:20 PM 42.3167 -71.4167 270° West 101 116 6,000 574 Climbing KA90
Wed 01:41:15 PM 42.3022 -71.4519 241° Southwest 99 114 6,600 600 Climbing Boston Center
Wed 01:42:10 PM 42.3006 -71.4856 266° West 98 113 7,100 466 Climbing Boston Center
Wed 01:43:11 PM 42.2967 -71.5222 262° West 101 116 7,500 393 Climbing Boston Center
Wed 01:44:12 PM 42.2906 -71.5589 257° West 101 116 7,900 246 Climbing Boston Center
Wed 01:45:13 PM 42.2869 -71.6011 263° West 108 124 8,000 49 Climbing Boston Center
Wed 01:46:14 PM 42.2808 -71.6458 260° West 123 142 8,000  Level Boston Center
Wed 01:47:15 PM 42.2792 -71.7022 268° West 136 157 8,000  Level Boston Center
Wed 01:48:16 PM 42.2733 -71.7528 261° West 136 157 8,000  Level Boston Center
Wed 01:49:16 PM 42.2694 -71.8006 264° West 134 154 8,000  Level Boston Center
Wed 01:50:17 PM 42.2656 -71.8508 264° West 136 157 8,000  Level Boston Center
Wed 01:51:18 PM 42.2658 -71.9042 270° West 137 158 8,000  Level Boston Center
Wed 01:52:19 PM 42.2681 -71.9603 273° West 137 158 8,000  Level Boston Center
Wed 01:53:14 PM 42.2683 -72.0053 270° West 136 157 8,000  Level Boston Center
Wed 01:54:15 PM 42.2789 -72.0586 285° West 146 168 8,000  Level Boston Center
Wed 01:55:16 PM 42.2936 -72.1089 292° West 145 167 8,000  Level Boston Center
Wed 01:56:17 PM 42.3064 -72.1536 291° West 136 157 8,000  Level Boston Center
Wed 01:57:17 PM 42.3189 -72.2042 289° West 137 158 8,000  Level Boston Center
Wed 01:58:19 PM 42.3336 -72.2547 292° West 139 160 8,000  Level Boston Center
Wed 01:59:19 PM 42.3442 -72.3053 286° West 134 154 8,000  Level Boston Center
Wed 02:00:20 PM 42.3567 -72.3503 291° West 131 151 8,000  Level Boston Center
Wed 02:01:21 PM 42.3711 -72.3981 292° West 135 155 8,000  Level Boston Center
Wed 02:02:22 PM 42.3836 -72.4486 289° West 135 155 8,000  Level Boston Center
Wed 02:03:23 PM 42.3983 -72.4936 294° West 134 154 8,000  Level Boston Center
Wed 02:04:24 PM 42.4086 -72.5442 285° West 135 155 8,000  Level Boston Center
Wed 02:05:25 PM 42.4233 -72.5919 293° West 135 155 8,000  Level Boston Center
Wed 02:06:26 PM 42.4356 -72.6397 289° West 136 157 8,000  Level Boston Center
Wed 02:07:27 PM 42.4503 -72.6878 293° West 139 160 8,000 -56 Level Boston Center
Wed 02:08:14 PM 42.4606 -72.7300 288° West 144 166 7,900 -63 Descending Boston Center
Wed 02:09:02 PM 42.4728 -72.7750 290° West 145 167 7,900  Level Boston Center
Wed 02:09:57 PM 42.4872 -72.8231 292° West 149 171 7,900  Level Boston Center
Wed 02:10:58 PM 42.5017 -72.8681 294° West 145 167 7,900 50 Level Boston Center
Wed 02:11:58 PM 42.5161 -72.9189 291° West 143 165 8,000 50 Climbing Boston Center
Wed 02:12:59 PM 42.5306 -72.9697 291° West 144 166 8,000  Level Boston Center
Wed 02:13:59 PM 42.5428 -73.0206 288° West 144 166 8,000 -50 Level Boston Center
Wed 02:15:00 PM 42.5550 -73.0769 286° West 152 175 7,900 -148 Descending Boston Center
Wed 02:16:01 PM 42.5692 -73.1281 291° West 151 174 7,700 -347 Descending Boston Center
Wed 02:17:01 PM 42.5875 -73.1931 291° West 171 197 7,200 -496 Descending Boston Center
Wed 02:18:02 PM 42.6039 -73.2525 291° West 167 192 6,700 -541 Descending Boston Center
Wed 02:19:03 PM 42.6200 -73.3092 291° West 165 190 6,100 -639 Descending Boston Center
Wed 02:20:04 PM 42.6364 -73.3658 291° West 165 190 5,400 -595 Descending Boston Center
Wed 02:21:04 PM 42.6503 -73.4281 287° West 169 194 4,900 -248 Descending Boston Center
Wed 02:22:05 PM 42.6875 -73.4597 328° Northwest 157 181 4,900  Level Boston Center
Wed 02:22:59 PM 42.7206 -73.4942 323° Northwest 153 176 4,900  Level Boston Center
Wed 02:24:00 PM 42.7558 -73.5231 329° Northwest 155 178 4,900 -148 Level Boston Center
Wed 02:25:01 PM 42.7931 -73.5606 324° Northwest 156 180 4,600 -397 Descending Boston Center
Wed 02:26:01 PM 42.8322 -73.6008 323° Northwest 167 192 4,100 -545 Descending Boston Center
Wed 02:27:02 PM 42.8503 -73.6494 297° West 170 196 3,500 -689 Descending Boston Center
Wed 02:28:03 PM 42.8353 -73.7114 252° West 171 197 2,700 -893 Descending Boston Center
Wed 02:29:03 PM 42.8178 -73.7703 248° West 172 198 1,700 -942 Descending Boston Center
Wed 02:30:04 PM 42.7819 -73.8064 216° Southwest 151 174 800 -885 Descending Boston Center

Login

Don't have an account? Register now (free) for customized features, flight alerts, and more!